createdAt,value
2019-01-31T00:01:07.891Z,5.27
2019-01-31T00:03:48.672Z,4.90
2019-01-31T00:06:29.840Z,4.53
2019-01-31T00:09:11.364Z,5.40
2019-01-31T00:17:28.247Z,4.80
2019-01-31T00:20:09.781Z,5.87
2019-01-31T00:22:50.647Z,5.13
2019-01-31T00:25:31.294Z,5.10
2019-01-31T00:28:12.145Z,4.63
2019-01-31T00:33:42.610Z,4.43
2019-01-31T00:36:24.164Z,4.47
2019-01-31T00:39:05.011Z,4.60
2019-01-31T00:41:45.979Z,4.23
2019-01-31T00:47:16.771Z,3.50
2019-01-31T00:49:58.372Z,3.63
2019-01-31T00:52:39.748Z,3.63
2019-01-31T01:00:56.690Z,3.50
2019-01-31T01:06:21.478Z,3.20
2019-01-31T01:09:11.720Z,3.07
2019-01-31T01:12:04.533Z,3.00
2019-01-31T01:15:15.271Z,3.17
2019-01-31T01:18:02.831Z,3.20
2019-01-31T01:21:00.416Z,3.13
2019-01-31T01:23:47.737Z,3.10
2019-01-31T01:26:55.297Z,3.40
2019-01-31T01:30:02.922Z,3.07
2019-01-31T01:33:10.484Z,2.80
2019-01-31T01:36:11.311Z,2.67
2019-01-31T01:39:18.889Z,2.93
2019-01-31T01:42:21.491Z,3.43
2019-01-31T01:45:29.128Z,3.03
2019-01-31T01:48:36.703Z,2.67
2019-01-31T01:51:37.527Z,3.73
2019-01-31T01:54:45.087Z,3.60
2019-01-31T01:57:52.684Z,3.10
2019-01-31T02:00:33.577Z,2.87
2019-01-31T02:03:18.110Z,3.00
2019-01-31T02:05:59.657Z,3.17
2019-01-31T02:11:37.804Z,2.90
2019-01-31T02:17:11.507Z,2.93
2019-01-31T02:33:54.093Z,3.33
2019-01-31T02:42:27.336Z,3.40
2019-01-31T02:47:58.009Z,3.00
2019-01-31T02:56:25.928Z,4.10
2019-01-31T02:59:07.593Z,4.90
2019-01-31T03:04:41.199Z,5.20
2019-01-31T03:07:22.581Z,5.27
2019-01-31T03:10:04.054Z,4.80
2019-01-31T03:12:45.503Z,4.73
2019-01-31T03:15:27.185Z,5.83
2019-01-31T03:18:08.456Z,5.70
2019-01-31T03:23:39.047Z,5.53
2019-01-31T03:26:20.227Z,5.53
2019-01-31T03:29:01.767Z,4.77
2019-01-31T03:31:43.192Z,4.10
2019-01-31T03:37:06.226Z,5.77
2019-01-31T03:39:46.790Z,6.13
2019-01-31T03:45:16.519Z,7.33
2019-01-31T03:50:53.075Z,7.40
2019-01-31T03:53:50.845Z,7.30
2019-01-31T03:59:53.822Z,6.87
2019-01-31T04:02:34.859Z,7.40
2019-01-31T04:05:16.367Z,7.00
2019-01-31T04:10:47.175Z,7.50
2019-01-31T04:13:28.717Z,6.77
2019-01-31T04:16:10.315Z,7.30
2019-01-31T04:21:43.583Z,7.80
2019-01-31T04:30:11.464Z,7.67
2019-01-31T04:32:52.929Z,8.13
2019-01-31T04:35:37.429Z,8.07
2019-01-31T04:41:08.191Z,8.17
2019-01-31T04:46:26.745Z,8.40
2019-01-31T04:48:57.676Z,7.40
2019-01-31T04:52:53.709Z,8.20
2019-01-31T05:03:12.533Z,8.13
2019-01-31T05:05:46.769Z,7.72
2019-01-31T05:08:17.104Z,8.85
2019-01-31T05:10:46.756Z,10.32
2019-01-31T05:13:16.857Z,8.63
2019-01-31T05:15:47.216Z,8.20
2019-01-31T05:18:17.021Z,7.57
2019-01-31T05:20:49.574Z,9.10
2019-01-31T05:23:28.838Z,8.40
2019-01-31T05:26:02.243Z,7.63
2019-01-31T05:28:32.178Z,8.37
2019-01-31T05:31:05.621Z,7.30
2019-01-31T05:33:35.334Z,7.40
2019-01-31T05:36:06.718Z,7.40
2019-01-31T05:38:36.680Z,7.73
2019-01-31T05:41:06.331Z,7.80
2019-01-31T05:43:35.981Z,8.80
2019-01-31T05:46:07.011Z,9.10
2019-01-31T05:48:38.288Z,7.90
2019-01-31T05:51:08.161Z,9.10
2019-01-31T05:53:38.759Z,8.13
2019-01-31T05:56:10.054Z,8.43
2019-01-31T05:58:40.191Z,8.03
2019-01-31T06:01:10.062Z,8.60
2019-01-31T06:03:39.782Z,9.07
2019-01-31T06:06:10.896Z,8.37
2019-01-31T06:08:40.392Z,7.43
2019-01-31T06:11:10.319Z,7.73
2019-01-31T06:13:39.801Z,8.17
2019-01-31T06:16:09.795Z,9.20
2019-01-31T06:18:39.501Z,8.20
2019-01-31T06:21:13.304Z,7.13
2019-01-31T06:23:44.851Z,6.63
2019-01-31T06:26:15.119Z,8.70
2019-01-31T06:28:44.783Z,7.07
2019-01-31T06:31:14.451Z,6.90
2019-01-31T06:33:55.896Z,6.87
2019-01-31T06:36:52.996Z,6.27
2019-01-31T06:39:31.533Z,6.07
2019-01-31T06:42:15.061Z,6.50
2019-01-31T06:44:55.804Z,7.73
2019-01-31T06:47:26.055Z,6.43
2019-01-31T06:50:09.051Z,7.67
2019-01-31T06:57:08.819Z,6.27
2019-01-31T07:00:33.680Z,7.37
2019-01-31T07:06:59.430Z,6.17
2019-01-31T07:10:33.869Z,6.30
2019-01-31T07:12:49.075Z,5.40
2019-01-31T07:15:21.689Z,5.20
2019-01-31T07:17:52.132Z,5.13
2019-01-31T07:20:21.936Z,5.60
2019-01-31T07:22:51.566Z,5.57
2019-01-31T07:25:28.828Z,4.83
2019-01-31T07:27:58.493Z,5.20
2019-01-31T07:30:27.996Z,5.20
2019-01-31T07:32:57.435Z,4.53
2019-01-31T07:35:26.870Z,4.20
2019-01-31T07:37:56.342Z,4.43
2019-01-31T07:40:28.093Z,4.57
2019-01-31T07:42:59.992Z,4.53
2019-01-31T07:45:30.807Z,5.33
2019-01-31T07:48:00.272Z,4.47
2019-01-31T07:50:29.675Z,4.60
2019-01-31T07:52:59.029Z,4.73
2019-01-31T07:55:29.013Z,4.87
2019-01-31T07:57:59.407Z,4.93
2019-01-31T08:00:38.610Z,4.83
2019-01-31T08:03:08.002Z,5.00
2019-01-31T08:09:09.319Z,4.67
2019-01-31T08:11:52.946Z,5.40
2019-01-31T08:14:32.933Z,4.90
2019-01-31T08:17:09.124Z,5.97
2019-01-31T08:20:07.079Z,4.93
2019-01-31T08:26:10.027Z,5.77
2019-01-31T08:29:17.049Z,5.60
2019-01-31T08:29:22.124Z,6.80
2019-01-31T08:32:16.310Z,5.33
2019-01-31T08:35:05.778Z,5.90
2019-01-31T08:38:52.989Z,5.90
2019-01-31T08:45:17.289Z,6.80
2019-01-31T08:48:35.074Z,5.40
2019-01-31T08:51:28.732Z,5.20
2019-01-31T08:54:26.999Z,5.87
2019-01-31T08:57:18.603Z,7.17
2019-01-31T08:59:48.465Z,6.37
2019-01-31T09:02:18.043Z,6.47
2019-01-31T09:04:47.888Z,6.17
2019-01-31T09:07:17.440Z,6.00
2019-01-31T09:09:47.307Z,6.30
2019-01-31T09:12:16.875Z,6.33
2019-01-31T09:14:46.728Z,6.13
2019-01-31T09:17:16.570Z,6.13
2019-01-31T09:19:46.125Z,5.90
2019-01-31T09:22:27.157Z,5.73
2019-01-31T09:25:31.467Z,5.60
2019-01-31T09:28:54.159Z,5.90
2019-01-31T09:32:09.322Z,5.63
2019-01-31T09:35:26.218Z,6.37
2019-01-31T09:38:39.823Z,5.80
2019-01-31T09:42:01.913Z,6.50
2019-01-31T09:45:15.485Z,6.43
2019-01-31T09:47:53.490Z,6.70
2019-01-31T09:50:48.048Z,6.90
2019-01-31T09:53:57.264Z,6.90
2019-01-31T09:57:02.489Z,7.53
2019-01-31T10:00:06.214Z,7.57
2019-01-31T10:03:47.363Z,7.57
2019-01-31T10:06:56.383Z,7.20
2019-01-31T10:09:43.437Z,7.50
2019-01-31T10:13:06.355Z,7.43
2019-01-31T10:16:29.357Z,8.27
2019-01-31T10:19:37.340Z,8.70
2019-01-31T10:22:38.965Z,8.57
2019-01-31T10:25:28.919Z,8.50
2019-01-31T10:28:45.500Z,8.13
2019-01-31T10:31:31.872Z,8.20
2019-01-31T10:34:15.373Z,9.10
2019-01-31T10:37:30.358Z,9.03
2019-01-31T10:40:49.689Z,8.70
2019-01-31T10:44:12.231Z,8.57
2019-01-31T10:50:17.806Z,9.50
2019-01-31T10:53:25.390Z,10.10
2019-01-31T10:58:51.512Z,10.03
2019-01-31T11:08:10.087Z,12.53
2019-01-31T11:11:18.334Z,14.07
2019-01-31T11:14:25.836Z,10.97
2019-01-31T11:21:10.445Z,10.53
2019-01-31T11:26:37.586Z,10.83
2019-01-31T11:29:45.164Z,9.43
2019-01-31T11:32:55.617Z,9.67
2019-01-31T11:36:03.275Z,9.30
2019-01-31T11:38:44.595Z,10.33
2019-01-31T11:41:52.180Z,9.87
2019-01-31T11:44:59.684Z,8.43
2019-01-31T11:57:19.676Z,8.77
2019-01-31T11:59:48.157Z,8.83
2019-01-31T12:02:57.707Z,8.07
2019-01-31T12:11:10.811Z,9.43
2019-01-31T12:16:54.855Z,8.30
2019-01-31T12:22:54.233Z,8.57
2019-01-31T12:26:01.824Z,8.43
2019-01-31T12:28:54.496Z,9.45
2019-01-31T12:31:43.114Z,8.50
2019-01-31T12:34:31.636Z,7.70
2019-01-31T12:37:39.208Z,9.07
2019-01-31T12:40:27.753Z,8.90
2019-01-31T12:43:21.723Z,9.45
2019-01-31T12:55:10.596Z,8.70
2019-01-31T12:58:57.756Z,8.60
2019-01-31T13:03:40.910Z,8.90
2019-01-31T13:12:17.095Z,8.80
2019-01-31T13:15:08.561Z,8.90
2019-01-31T13:20:41.813Z,7.80
2019-01-31T13:23:27.230Z,9.37
2019-01-31T13:29:04.418Z,9.07
2019-01-31T13:34:57.556Z,8.67
2019-01-31T13:40:27.718Z,6.80
2019-01-31T13:42:57.584Z,7.63
2019-01-31T13:45:29.658Z,8.30
2019-01-31T13:48:18.742Z,8.27
2019-01-31T13:51:08.149Z,9.13
2019-01-31T13:53:49.612Z,9.03
2019-01-31T13:59:15.081Z,8.67
2019-01-31T14:01:44.940Z,7.97
2019-01-31T14:04:14.366Z,8.93
2019-01-31T14:06:43.800Z,9.53
2019-01-31T14:09:13.235Z,9.87
2019-01-31T14:11:42.639Z,9.80
2019-01-31T14:14:12.038Z,9.10
2019-01-31T14:17:01.343Z,10.07
2019-01-31T14:23:51.359Z,9.33
2019-01-31T14:29:57.727Z,9.90
2019-01-31T14:32:46.444Z,9.47
2019-01-31T14:35:35.972Z,10.07
2019-01-31T14:47:15.903Z,9.47
2019-01-31T15:02:33.888Z,8.90
2019-01-31T15:11:21.149Z,7.73
2019-01-31T15:14:11.718Z,7.27
2019-01-31T15:16:41.664Z,6.10
2019-01-31T15:19:11.223Z,5.90
2019-01-31T15:21:59.924Z,6.10
2019-01-31T15:27:40.018Z,5.57
2019-01-31T15:33:06.333Z,5.40
2019-01-31T15:38:50.897Z,6.03
2019-01-31T15:47:13.230Z,5.37
2019-01-31T15:49:47.840Z,5.10
2019-01-31T15:52:17.863Z,5.30
2019-01-31T15:54:47.789Z,5.10
2019-01-31T16:06:17.619Z,5.33
2019-01-31T16:11:45.501Z,5.57
2019-01-31T16:17:18.484Z,4.97
2019-01-31T16:20:00.632Z,4.70
2019-01-31T16:43:58.793Z,5.63
2019-01-31T16:46:47.633Z,5.13
2019-01-31T16:49:37.863Z,5.50
2019-01-31T16:52:10.016Z,6.10
2019-01-31T16:54:58.563Z,6.27
2019-01-31T17:03:13.023Z,6.17
2019-01-31T17:06:01.245Z,6.03
2019-01-31T17:08:49.792Z,6.57
2019-01-31T17:11:38.682Z,6.63
2019-01-31T17:14:27.296Z,6.20
2019-01-31T17:20:04.004Z,7.10
2019-01-31T17:22:52.619Z,6.67
2019-01-31T17:28:35.395Z,6.27
2019-01-31T17:31:04.959Z,6.80
2019-01-31T17:33:54.001Z,6.67
2019-01-31T17:36:45.684Z,7.03
2019-01-31T17:39:32.819Z,6.57
2019-01-31T17:42:21.882Z,7.03
2019-01-31T17:45:09.100Z,9.27
2019-01-31T17:47:58.360Z,9.50
2019-01-31T17:56:14.564Z,7.17
2019-01-31T17:58:44.175Z,7.53
2019-01-31T18:01:32.824Z,8.10
2019-01-31T18:04:21.866Z,7.47
2019-01-31T18:07:10.402Z,7.93
2019-01-31T18:09:59.255Z,9.37
2019-01-31T18:12:47.908Z,8.70
2019-01-31T18:15:42.322Z,8.53
2019-01-31T18:21:25.628Z,8.80
2019-01-31T18:24:14.143Z,9.23
2019-01-31T18:27:02.714Z,8.57
2019-01-31T18:29:51.541Z,7.60
2019-01-31T18:32:40.447Z,7.77
2019-01-31T18:35:28.943Z,8.00
2019-01-31T18:38:17.719Z,7.93
2019-01-31T18:44:02.440Z,7.80
2019-01-31T18:49:32.838Z,7.73
2019-01-31T18:55:02.664Z,8.10
2019-01-31T18:57:43.412Z,8.17
2019-01-31T19:20:38.299Z,8.20
2019-01-31T19:23:19.445Z,8.27
2019-01-31T19:31:53.571Z,8.40
2019-01-31T19:37:31.760Z,8.50
2019-01-31T19:40:21.895Z,8.17
2019-01-31T19:43:10.437Z,8.73
2019-01-31T19:48:56.152Z,9.57
2019-01-31T19:57:58.983Z,8.87
2019-01-31T20:00:47.655Z,8.00
2019-01-31T20:06:32.072Z,8.97
2019-01-31T20:12:34.608Z,8.23
2019-01-31T20:15:23.409Z,10.37
2019-01-31T20:18:12.023Z,7.83
2019-01-31T20:20:42.885Z,8.13
2019-01-31T20:23:32.620Z,8.00
2019-01-31T20:26:22.406Z,8.00
2019-01-31T20:29:11.306Z,7.40
2019-01-31T20:32:00.088Z,7.90
2019-01-31T20:34:48.712Z,6.90
2019-01-31T20:37:37.485Z,7.00
2019-01-31T20:40:18.753Z,6.50
2019-01-31T20:43:00.292Z,6.73
2019-01-31T20:45:42.119Z,6.63
2019-01-31T20:48:23.521Z,6.77
2019-01-31T20:51:04.412Z,6.57
2019-01-31T20:53:45.091Z,6.33
2019-01-31T20:56:26.341Z,6.03
2019-01-31T20:59:08.004Z,6.03
2019-01-31T21:04:38.633Z,5.10
2019-01-31T21:07:19.797Z,5.47
2019-01-31T21:10:01.159Z,5.10
2019-01-31T21:12:43.085Z,5.93
2019-01-31T21:15:27.142Z,5.47
2019-01-31T21:23:48.267Z,5.70
2019-01-31T21:26:29.728Z,5.47
2019-01-31T21:31:54.488Z,5.40
2019-01-31T21:34:36.091Z,6.00
2019-01-31T21:37:20.249Z,5.77
2019-01-31T21:42:35.505Z,5.70
2019-01-31T21:45:24.012Z,5.80
2019-01-31T21:48:04.969Z,5.63
2019-01-31T21:53:43.139Z,6.10
2019-01-31T21:56:24.806Z,5.30
2019-01-31T22:02:02.008Z,5.90
2019-01-31T22:04:45.888Z,5.23
2019-01-31T22:07:27.309Z,5.67
2019-01-31T22:10:08.961Z,5.93
2019-01-31T22:12:50.418Z,5.67
2019-01-31T22:15:32.145Z,6.13
2019-01-31T22:18:13.882Z,6.10
2019-01-31T22:20:55.318Z,5.97
2019-01-31T22:26:22.333Z,6.27
2019-01-31T22:31:45.663Z,6.20
2019-01-31T22:34:26.829Z,5.90
2019-01-31T22:37:07.665Z,5.40
2019-01-31T22:39:49.026Z,6.27
2019-01-31T22:42:30.775Z,5.40
2019-01-31T22:45:11.913Z,6.83
2019-01-31T22:47:41.500Z,5.70
2019-01-31T23:03:23.816Z,7.03
2019-01-31T23:06:14.720Z,6.70
2019-01-31T23:12:14.809Z,6.63
2019-01-31T23:15:06.665Z,6.93
2019-01-31T23:20:59.353Z,5.93
2019-01-31T23:23:49.228Z,6.63
2019-01-31T23:26:57.979Z,6.47
2019-01-31T23:32:43.131Z,6.87
2019-01-31T23:38:08.575Z,6.37
2019-01-31T23:43:35.890Z,6.60
2019-01-31T23:49:01.082Z,6.43
2019-01-31T23:51:36.546Z,6.83
2019-01-31T23:54:11.177Z,6.07
